Ben Bolt, Texas
Current Conditions -  °F | °C
As of 5:53 PM on Sunday 25 Jan 2015 (Local Time) from KALI Reporting Station
Clear Clear  
Wind Chill: 18°   Ceiling: Unl
Heat Index: 18°   Visibility: 10mi
Dew Point:   Wind: 7mph
Humidity: 34%   Direction: 340°NNW
Pressure: 30.12"   Gusts: NA
Location:  27.65°N, 98.08°W
Report Text: KALI 252353Z AUTO 34006KT 10SM CLR 18/02 A3012 RMK AO2 SLP197 T01830022 10250 20183 53009 $
Loading
Personal Weather Stations






























Interactive Weather Map New forecast layout! Learn more

10-Day Weather Forecast

Advertisements
Track Severe Weather on mobile